createdAt,value
2023-03-01T00:00:24.654Z,9.744893
2023-03-01T00:01:24.620Z,9.745275
2023-03-01T00:02:24.654Z,9.745431
2023-03-01T00:03:24.628Z,9.745684
2023-03-01T00:04:24.603Z,9.745310
2023-03-01T00:05:24.622Z,9.745489
2023-03-01T00:06:24.588Z,9.745691
2023-03-01T00:07:24.592Z,9.746061
2023-03-01T00:08:24.577Z,9.746387
2023-03-01T00:09:24.566Z,9.745601
2023-03-01T00:10:24.582Z,9.745921
2023-03-01T00:11:24.560Z,9.745537
2023-03-01T00:12:24.558Z,9.745526
2023-03-01T00:13:24.539Z,9.745283
2023-03-01T00:14:24.532Z,9.745567
2023-03-01T00:15:24.556Z,9.745400
2023-03-01T00:16:24.549Z,9.745419
2023-03-01T00:17:24.503Z,9.745543
2023-03-01T00:18:24.516Z,9.745530
2023-03-01T00:19:24.494Z,9.745543
2023-03-01T00:20:24.509Z,9.745464
2023-03-01T00:21:24.487Z,9.745433
2023-03-01T00:22:24.475Z,9.745378
2023-03-01T00:23:24.462Z,9.745571
2023-03-01T00:24:25.453Z,9.745684
2023-03-01T00:25:24.475Z,9.745631
2023-03-01T00:26:24.463Z,9.745447
2023-03-01T00:27:24.439Z,9.745356
2023-03-01T00:28:24.438Z,9.745571
2023-03-01T00:29:24.422Z,9.745590
2023-03-01T00:30:24.452Z,9.745555
2023-03-01T00:31:24.414Z,9.745528
2023-03-01T00:32:24.445Z,9.745884
2023-03-01T00:33:24.408Z,9.745496
2023-03-01T00:34:24.390Z,9.745300
2023-03-01T00:35:24.421Z,9.745443
2023-03-01T00:36:24.372Z,9.745661
2023-03-01T00:37:24.371Z,9.745602
2023-03-01T00:38:24.360Z,9.745623
2023-03-01T00:39:24.355Z,9.745522
2023-03-01T00:40:24.374Z,9.745543
2023-03-01T00:41:24.343Z,9.745549
2023-03-01T00:42:24.340Z,9.745447
2023-03-01T00:43:24.326Z,9.745636
2023-03-01T00:44:24.318Z,9.745765
2023-03-01T00:45:24.354Z,9.745689
2023-03-01T00:46:24.331Z,9.746002
2023-03-01T00:47:24.309Z,9.745671
2023-03-01T00:48:24.290Z,9.745688
2023-03-01T00:49:24.296Z,9.745667
2023-03-01T00:50:24.316Z,9.745545
2023-03-01T00:51:24.279Z,9.745672
2023-03-01T00:52:24.263Z,9.745930
2023-03-01T00:53:24.256Z,9.745720
2023-03-01T00:54:24.242Z,9.745959
2023-03-01T00:55:24.236Z,9.745770
2023-03-01T00:56:24.259Z,9.746235
2023-03-01T00:57:24.227Z,9.745884
2023-03-01T00:58:24.206Z,9.745719
2023-03-01T00:59:24.202Z,9.745650
2023-03-01T01:00:24.203Z,9.745989
2023-03-01T01:01:24.271Z,9.745917
2023-03-01T01:02:24.204Z,9.745610
2023-03-01T01:03:24.181Z,9.745859
2023-03-01T01:04:24.176Z,9.745820
2023-03-01T01:05:24.168Z,9.745614
2023-03-01T01:06:24.183Z,9.745460
2023-03-01T01:07:24.165Z,9.746481
2023-03-01T01:08:24.160Z,9.746142
2023-03-01T01:09:24.152Z,9.746006
2023-03-01T01:10:24.130Z,9.746157
2023-03-01T01:11:24.151Z,9.745811
2023-03-01T01:12:24.102Z,9.746320
2023-03-01T01:13:25.106Z,9.745934
2023-03-01T01:14:24.094Z,9.745643
2023-03-01T01:15:24.090Z,9.745888
2023-03-01T01:16:24.110Z,9.746318
2023-03-01T01:17:24.083Z,9.749536
2023-03-01T01:18:24.064Z,9.747076
2023-03-01T01:19:24.053Z,9.746329
2023-03-01T01:20:24.035Z,9.745560
2023-03-01T01:21:25.092Z,9.745429
2023-03-01T01:22:24.032Z,9.745753
2023-03-01T01:23:24.025Z,9.746100
2023-03-01T01:24:24.022Z,9.746100
2023-03-01T01:25:24.016Z,9.746384
2023-03-01T01:26:24.026Z,9.746496
2023-03-01T01:27:24.000Z,9.746021
2023-03-01T01:28:23.985Z,9.745899
2023-03-01T01:29:23.991Z,9.746083
2023-03-01T01:30:23.978Z,9.746267
2023-03-01T01:31:24.077Z,9.746288
2023-03-01T01:32:26.080Z,9.746288
2023-03-01T01:33:23.952Z,9.746288
2023-03-01T01:34:23.940Z,9.746288
2023-03-01T01:35:23.965Z,9.746288
2023-03-01T01:36:23.960Z,9.746288
2023-03-01T01:37:23.937Z,9.746288
2023-03-01T01:38:23.918Z,9.746288
2023-03-01T01:39:23.910Z,9.746288
2023-03-01T01:40:23.899Z,9.746288
2023-03-01T01:41:23.943Z,9.746288
2023-03-01T01:42:23.882Z,9.746288
2023-03-01T01:43:23.880Z,9.746288
2023-03-01T01:44:23.874Z,9.746288
2023-03-01T01:45:23.865Z,9.746288
2023-03-01T01:46:23.923Z,9.746288
2023-03-01T01:47:23.853Z,9.746288
2023-03-01T01:48:23.837Z,9.746288
2023-03-01T01:49:23.835Z,9.746288
2023-03-01T01:50:23.827Z,9.746288
2023-03-01T01:51:23.827Z,9.746288
2023-03-01T01:52:23.832Z,9.746288
2023-03-01T01:53:23.803Z,9.746288
2023-03-01T01:54:23.805Z,9.746288
2023-03-01T01:55:23.789Z,9.746288
2023-03-01T01:56:23.791Z,9.745491
2023-03-01T01:57:23.805Z,9.745256
2023-03-01T01:58:23.762Z,9.745611
2023-03-01T01:59:23.760Z,9.744872
2023-03-01T02:00:23.762Z,9.745068
2023-03-01T02:01:23.754Z,9.745197
2023-03-01T02:02:23.907Z,9.745077
2023-03-01T02:03:23.852Z,9.745283
2023-03-01T02:04:23.725Z,9.745175
2023-03-01T02:05:23.716Z,9.744878
2023-03-01T02:06:23.709Z,9.745061
2023-03-01T02:07:23.747Z,9.745309
2023-03-01T02:08:23.694Z,9.745238
2023-03-01T02:09:23.683Z,9.745323
2023-03-01T02:10:23.681Z,9.745297
2023-03-01T02:11:23.670Z,9.745442
2023-03-01T02:12:23.685Z,9.745276
2023-03-01T02:13:23.661Z,9.745346
2023-03-01T02:14:23.642Z,9.745469
2023-03-01T02:15:23.639Z,9.745610
2023-03-01T02:16:23.679Z,9.745444
2023-03-01T02:17:23.656Z,9.745748
2023-03-01T02:18:23.624Z,9.745360
2023-03-01T02:19:23.617Z,9.745440
2023-03-01T02:20:23.607Z,9.745703
2023-03-01T02:21:23.598Z,9.745146
2023-03-01T02:22:23.656Z,9.745245
2023-03-01T02:23:23.593Z,9.745482
2023-03-01T02:24:23.574Z,9.745605
2023-03-01T02:25:23.568Z,9.745443
2023-03-01T02:26:23.561Z,9.745496
2023-03-01T02:27:23.608Z,9.745322
2023-03-01T02:28:23.548Z,9.745427
2023-03-01T02:29:23.540Z,9.745566
2023-03-01T02:30:23.522Z,9.745611
2023-03-01T02:31:23.604Z,9.745390
2023-03-01T02:32:23.550Z,9.745267
2023-03-01T02:33:23.508Z,9.745559
2023-03-01T02:34:23.504Z,9.745563
2023-03-01T02:35:23.539Z,9.745600
2023-03-01T02:36:23.485Z,9.745741
2023-03-01T02:37:23.514Z,9.745331
2023-03-01T02:38:23.477Z,9.745584
2023-03-01T02:39:23.465Z,9.745558
2023-03-01T02:40:23.456Z,9.745508
2023-03-01T02:41:23.445Z,9.745604
2023-03-01T02:42:25.529Z,9.745572
2023-03-01T02:43:23.431Z,9.745658
2023-03-01T02:44:23.426Z,9.745790
2023-03-01T02:45:23.422Z,9.745625
2023-03-01T02:46:23.455Z,9.745673
2023-03-01T02:47:23.415Z,9.745592
2023-03-01T02:48:23.429Z,9.745589
2023-03-01T02:49:23.388Z,9.745659
2023-03-01T02:50:23.384Z,9.745436
2023-03-01T02:51:23.378Z,9.745535
2023-03-01T02:52:23.389Z,9.745400
2023-03-01T02:53:23.408Z,9.745499
2023-03-01T02:54:23.362Z,9.745448
2023-03-01T02:55:23.350Z,9.745444
2023-03-01T02:56:23.339Z,9.745350
2023-03-01T02:57:23.337Z,9.745387
2023-03-01T02:58:23.382Z,9.745356
2023-03-01T02:59:23.328Z,9.745637
2023-03-01T03:00:23.322Z,9.745670
2023-03-01T03:01:23.309Z,9.745544
2023-03-01T03:02:23.297Z,9.745367
2023-03-01T03:03:23.350Z,9.745460
2023-03-01T03:04:23.280Z,9.745730
2023-03-01T03:05:23.270Z,9.745548
2023-03-01T03:06:23.276Z,9.746001
2023-03-01T03:07:23.270Z,9.745725
2023-03-01T03:08:23.295Z,9.745501
2023-03-01T03:09:23.248Z,9.745657
2023-03-01T03:10:23.247Z,9.745513
2023-03-01T03:11:23.230Z,9.745568
2023-03-01T03:12:23.223Z,9.745490
2023-03-01T03:13:23.286Z,9.744921
2023-03-01T03:14:23.208Z,9.745258
2023-03-01T03:15:23.203Z,9.745365
2023-03-01T03:16:23.272Z,9.745492
2023-03-01T03:17:23.192Z,9.745462
2023-03-01T03:18:23.212Z,9.745359
2023-03-01T03:19:23.184Z,9.745182
2023-03-01T03:20:23.173Z,9.745458
2023-03-01T03:21:23.161Z,9.745401
2023-03-01T03:22:23.151Z,9.745749
2023-03-01T03:23:23.177Z,9.745667
2023-03-01T03:24:23.146Z,9.745517
2023-03-01T03:25:23.142Z,9.745666
2023-03-01T03:26:23.117Z,9.745545
2023-03-01T03:27:23.103Z,9.745320
2023-03-01T03:28:23.129Z,9.745304
2023-03-01T03:29:23.108Z,9.745557
2023-03-01T03:30:23.096Z,9.745502
2023-03-01T03:31:23.131Z,9.745355
2023-03-01T03:32:23.103Z,9.745451
2023-03-01T03:33:23.099Z,9.745377
2023-03-01T03:34:23.062Z,9.745348
2023-03-01T03:35:23.051Z,9.745321
2023-03-01T03:36:23.043Z,9.745364
2023-03-01T03:37:23.039Z,9.745271
2023-03-01T03:38:23.232Z,9.745412
2023-03-01T03:39:23.021Z,9.745485
2023-03-01T03:40:23.015Z,9.745549
2023-03-01T03:41:23.002Z,9.745550
2023-03-01T03:42:23.002Z,9.745450
2023-03-01T03:43:23.022Z,9.745308
2023-03-01T03:44:22.987Z,9.745419
2023-03-01T03:45:22.983Z,9.745410
2023-03-01T03:46:22.976Z,9.745431
2023-03-01T03:47:22.965Z,9.745527
2023-03-01T03:48:22.986Z,9.745289
2023-03-01T03:49:22.950Z,9.745470
2023-03-01T03:50:22.938Z,9.745496
2023-03-01T03:51:22.953Z,9.745373
2023-03-01T03:52:22.926Z,9.745311
2023-03-01T03:53:22.995Z,9.745271
2023-03-01T03:54:22.908Z,9.745304
2023-03-01T03:55:22.916Z,9.744938
2023-03-01T03:56:22.889Z,9.745160
2023-03-01T03:57:22.891Z,9.745305
2023-03-01T03:58:22.915Z,9.745396
2023-03-01T03:59:22.870Z,9.745268
2023-03-01T04:00:22.861Z,9.745178
2023-03-01T04:01:22.882Z,9.745560
2023-03-01T04:02:22.943Z,9.745400
2023-03-01T04:03:22.843Z,9.745285
2023-03-01T04:04:22.866Z,9.745273
2023-03-01T04:05:22.827Z,9.745278
2023-03-01T04:06:22.823Z,9.745623
2023-03-01T04:07:22.812Z,9.745436
2023-03-01T04:08:22.805Z,9.745677
2023-03-01T04:09:22.838Z,9.745614
2023-03-01T04:10:22.779Z,9.746058
2023-03-01T04:11:22.786Z,9.746394
2023-03-01T04:12:22.777Z,9.745571
2023-03-01T04:13:22.770Z,9.745309
2023-03-01T04:14:22.789Z,9.745280
2023-03-01T04:15:22.753Z,9.745166
2023-03-01T04:16:22.796Z,9.745779
2023-03-01T04:17:22.740Z,9.746609
2023-03-01T04:18:22.731Z,9.746614
2023-03-01T04:19:22.754Z,9.745938
2023-03-01T04:20:22.715Z,9.745525
2023-03-01T04:21:22.720Z,9.745577
2023-03-01T04:22:22.699Z,9.745504
2023-03-01T04:23:22.727Z,9.745447
2023-03-01T04:24:22.718Z,9.745329
2023-03-01T04:25:22.672Z,9.745733
2023-03-01T04:26:22.669Z,9.746229
2023-03-01T04:27:22.670Z,9.746070
2023-03-01T04:28:22.659Z,9.745661
2023-03-01T04:29:22.676Z,9.745908
2023-03-01T04:30:22.645Z,9.745573
2023-03-01T04:31:22.881Z,9.745384
2023-03-01T04:32:22.668Z,9.745411
2023-03-01T04:33:22.636Z,9.745327
2023-03-01T04:34:22.642Z,9.745532
2023-03-01T04:35:22.724Z,9.745627
2023-03-01T04:36:22.811Z,9.745283
2023-03-01T04:37:22.596Z,9.745267
2023-03-01T04:38:22.586Z,9.745331
2023-03-01T04:39:22.611Z,9.745317
2023-03-01T04:40:22.582Z,9.745235
2023-03-01T04:41:22.581Z,9.745659
2023-03-01T04:42:22.569Z,9.745493
2023-03-01T04:43:22.561Z,9.745204
2023-03-01T04:44:22.584Z,9.745077
2023-03-01T04:45:22.537Z,9.745510
2023-03-01T04:46:22.612Z,9.745831
2023-03-01T04:47:22.529Z,9.745955
2023-03-01T04:48:22.523Z,9.745890
2023-03-01T04:49:22.539Z,9.745515
2023-03-01T04:50:22.532Z,9.745573
2023-03-01T04:51:22.501Z,9.745532
2023-03-01T04:52:22.490Z,9.745536
2023-03-01T04:53:22.484Z,9.745615
2023-03-01T04:54:22.522Z,9.745605
2023-03-01T04:55:22.464Z,9.745576
2023-03-01T04:56:22.458Z,9.745810
2023-03-01T04:57:22.450Z,9.745575
2023-03-01T04:58:22.467Z,9.745632
2023-03-01T04:59:22.459Z,9.745614
2023-03-01T05:00:22.426Z,9.745565
2023-03-01T05:01:22.425Z,9.745587
2023-03-01T05:02:22.439Z,9.745593
2023-03-01T05:03:22.411Z,9.745383
2023-03-01T05:04:22.469Z,9.745529
2023-03-01T05:05:22.399Z,9.745476
2023-03-01T05:06:22.394Z,9.745460
2023-03-01T05:07:22.388Z,9.745526
2023-03-01T05:08:22.392Z,9.745522
2023-03-01T05:09:22.395Z,9.745507
2023-03-01T05:10:22.358Z,9.745477
2023-03-01T05:11:22.355Z,9.745685
2023-03-01T05:12:22.340Z,9.745432
2023-03-01T05:13:22.340Z,9.745325
2023-03-01T05:14:22.356Z,9.745500
2023-03-01T05:15:22.321Z,9.745565
2023-03-01T05:16:22.322Z,9.745424
2023-03-01T05:17:22.306Z,9.745440
2023-03-01T05:18:22.297Z,9.745508
2023-03-01T05:19:22.321Z,9.745663
2023-03-01T05:20:22.285Z,9.745468
2023-03-01T05:21:22.279Z,9.745273
2023-03-01T05:22:22.267Z,9.745393
2023-03-01T05:23:22.258Z,9.745581
2023-03-01T05:24:22.278Z,9.745670
2023-03-01T05:25:22.281Z,9.745668
2023-03-01T05:26:28.977Z,9.745636
2023-03-01T05:27:24.236Z,9.745651
2023-03-01T05:28:22.230Z,9.745665
2023-03-01T05:29:22.250Z,9.745775
2023-03-01T05:30:22.213Z,9.745635
2023-03-01T05:31:22.246Z,9.745638
2023-03-01T05:32:22.205Z,9.745503
2023-03-01T05:33:22.191Z,9.745394
2023-03-01T05:34:22.205Z,9.745126
2023-03-01T05:35:22.225Z,9.745073
2023-03-01T05:36:22.184Z,9.745083
2023-03-01T05:37:22.193Z,9.745670
2023-03-01T05:38:22.171Z,9.745537
2023-03-01T05:39:22.171Z,9.745554
2023-03-01T05:40:22.140Z,9.745300
2023-03-01T05:41:22.134Z,9.745600
2023-03-01T05:42:22.130Z,9.745516
2023-03-01T05:43:22.117Z,9.745402
2023-03-01T05:44:22.161Z,9.745214
2023-03-01T05:45:22.100Z,9.745274
2023-03-01T05:46:22.136Z,9.745341
2023-03-01T05:47:22.093Z,9.745455
2023-03-01T05:48:22.092Z,9.745660
2023-03-01T05:49:22.113Z,9.745541
2023-03-01T05:50:22.063Z,9.745543
2023-03-01T05:51:22.058Z,9.745630
2023-03-01T05:52:22.055Z,9.745631
2023-03-01T05:53:22.059Z,9.745616
2023-03-01T05:54:22.068Z,9.745445
2023-03-01T05:55:22.046Z,9.745071
2023-03-01T05:56:22.025Z,9.745354
2023-03-01T05:57:22.019Z,9.745601
2023-03-01T05:58:22.011Z,9.745427
2023-03-01T05:59:22.030Z,9.745652
2023-03-01T06:00:21.996Z,9.745307
2023-03-01T06:01:21.986Z,9.745450
2023-03-01T06:02:22.002Z,9.745448
2023-03-01T06:03:21.976Z,9.745440
2023-03-01T06:04:22.042Z,9.745415
2023-03-01T06:05:21.972Z,9.745429
2023-03-01T06:06:21.964Z,9.745428
2023-03-01T06:07:21.941Z,9.745695
2023-03-01T06:08:21.946Z,9.745510
2023-03-01T06:09:21.953Z,9.745512
2023-03-01T06:10:21.936Z,9.745680
2023-03-01T06:11:21.925Z,9.745731
2023-03-01T06:12:21.931Z,9.745780
2023-03-01T06:13:21.912Z,9.745813
2023-03-01T06:14:21.962Z,9.745768
2023-03-01T06:15:21.890Z,9.745792
2023-03-01T06:16:21.878Z,9.745790
2023-03-01T06:17:22.880Z,9.745498
2023-03-01T06:18:21.865Z,9.745727
2023-03-01T06:19:21.905Z,9.746278
2023-03-01T06:20:21.860Z,9.746097
2023-03-01T06:21:21.843Z,9.745728
2023-03-01T06:22:21.849Z,9.745788
2023-03-01T06:23:21.826Z,9.745643
2023-03-01T06:24:21.829Z,9.745738
2023-03-01T06:25:21.849Z,9.745349
2023-03-01T06:26:21.818Z,9.745310
2023-03-01T06:27:21.806Z,9.745376
2023-03-01T06:28:21.803Z,9.745500
2023-03-01T06:29:21.794Z,9.745516
2023-03-01T06:30:21.823Z,9.745455
2023-03-01T06:31:21.786Z,9.745571
2023-03-01T06:32:21.817Z,9.745532
2023-03-01T06:33:21.758Z,9.745636
2023-03-01T06:34:21.783Z,9.745728
2023-03-01T06:35:21.819Z,9.745789
2023-03-01T06:36:21.741Z,9.745876
2023-03-01T06:37:21.741Z,9.745661
2023-03-01T06:38:21.724Z,9.745643
2023-03-01T06:39:21.713Z,9.745570
2023-03-01T06:40:21.737Z,9.745444
2023-03-01T06:41:21.711Z,9.745440
2023-03-01T06:42:21.689Z,9.745560
2023-03-01T06:43:21.693Z,9.745592
2023-03-01T06:44:21.681Z,9.745506
2023-03-01T06:45:21.691Z,9.745648
2023-03-01T06:46:21.699Z,9.745644
2023-03-01T06:47:21.666Z,9.744864
2023-03-01T06:48:21.665Z,9.744865
2023-03-01T06:49:21.649Z,9.744126
2023-03-01T06:50:21.736Z,9.744908
2023-03-01T06:51:21.641Z,9.745366
2023-03-01T06:52:21.626Z,9.745236
2023-03-01T06:53:21.620Z,9.745134
2023-03-01T06:54:21.610Z,9.744906
2023-03-01T06:55:21.629Z,9.745374
2023-03-01T06:56:21.596Z,9.745622
2023-03-01T06:57:21.581Z,9.745572
2023-03-01T06:58:21.587Z,9.745779
2023-03-01T06:59:21.570Z,9.745510
2023-03-01T07:00:21.590Z,9.746061
2023-03-01T07:01:21.695Z,9.746015
2023-03-01T07:02:21.549Z,9.745849
2023-03-01T07:03:21.540Z,9.745757
2023-03-01T07:04:21.532Z,9.745584
2023-03-01T07:05:21.556Z,9.745657
2023-03-01T07:06:21.527Z,9.745861
2023-03-01T07:07:21.504Z,9.745411
2023-03-01T07:08:21.508Z,9.745423
2023-03-01T07:09:21.497Z,9.745525
2023-03-01T07:10:22.468Z,9.745581
2023-03-01T07:11:21.484Z,9.745576
2023-03-01T07:12:21.476Z,9.745456
2023-03-01T07:13:21.469Z,9.745661
2023-03-01T07:14:21.514Z,9.745601
2023-03-01T07:15:21.498Z,9.745558
2023-03-01T07:16:21.530Z,9.745498
2023-03-01T07:17:21.467Z,9.745329
2023-03-01T07:18:21.462Z,9.745313
2023-03-01T07:19:21.438Z,9.745440
2023-03-01T07:20:21.456Z,9.745284
2023-03-01T07:21:21.415Z,9.745518
2023-03-01T07:22:21.409Z,9.745352
2023-03-01T07:23:21.415Z,9.744806
2023-03-01T07:24:21.385Z,9.745502
2023-03-01T07:25:21.434Z,9.745542
2023-03-01T07:26:21.389Z,9.745723
2023-03-01T07:27:21.370Z,9.745776
2023-03-01T07:28:21.359Z,9.745408
2023-03-01T07:29:21.353Z,9.745205
2023-03-01T07:30:21.368Z,9.745549
2023-03-01T07:31:21.338Z,9.745577
2023-03-01T07:32:21.402Z,9.745522
2023-03-01T07:33:21.371Z,9.745725
2023-03-01T07:34:21.312Z,9.745853
2023-03-01T07:35:21.329Z,9.745628
2023-03-01T07:36:21.290Z,9.745396
2023-03-01T07:37:21.292Z,9.745511
2023-03-01T07:38:21.280Z,9.745369
2023-03-01T07:39:21.278Z,9.745617
2023-03-01T07:40:21.307Z,9.745603
2023-03-01T07:41:21.265Z,9.745764
2023-03-01T07:42:21.249Z,9.745649
2023-03-01T07:43:21.242Z,9.745760
2023-03-01T07:44:21.242Z,9.745666
2023-03-01T07:45:21.396Z,9.745495
2023-03-01T07:46:21.220Z,9.745689
2023-03-01T07:47:21.203Z,9.745640
2023-03-01T07:48:21.210Z,9.745528
2023-03-01T07:49:21.201Z,9.745565
2023-03-01T07:50:21.213Z,9.745612
2023-03-01T07:51:22.162Z,9.746035
2023-03-01T07:52:22.167Z,9.745898
2023-03-01T07:53:21.161Z,9.745627
2023-03-01T07:54:21.151Z,9.745534
2023-03-01T07:55:21.166Z,9.745438
2023-03-01T07:56:21.136Z,9.745337
2023-03-01T07:57:21.137Z,9.745386
2023-03-01T07:58:21.127Z,9.745481
2023-03-01T07:59:21.119Z,9.745740
2023-03-01T08:00:21.134Z,9.745822
2023-03-01T08:01:21.089Z,9.745757
2023-03-01T08:02:22.107Z,9.745647
2023-03-01T08:03:21.083Z,9.745434
2023-03-01T08:04:21.094Z,9.745295
2023-03-01T08:05:21.099Z,9.745438
2023-03-01T08:06:21.061Z,9.745507
2023-03-01T08:07:21.063Z,9.745420
2023-03-01T08:08:21.059Z,9.745565
2023-03-01T08:09:21.045Z,9.745405
2023-03-01T08:10:21.069Z,9.745390
2023-03-01T08:11:21.234Z,9.745524
2023-03-01T08:12:21.019Z,9.745535
2023-03-01T08:13:21.012Z,9.745802
2023-03-01T08:14:21.007Z,9.745760
2023-03-01T08:15:21.018Z,9.745792
2023-03-01T08:16:21.044Z,9.745671
2023-03-01T08:17:20.981Z,9.745610
2023-03-01T08:18:20.972Z,9.745296
2023-03-01T08:19:20.964Z,9.745232
2023-03-01T08:20:21.048Z,9.745332
2023-03-01T08:21:20.949Z,9.745462
2023-03-01T08:22:20.939Z,9.745383
2023-03-01T08:23:20.926Z,9.745074
2023-03-01T08:24:21.929Z,9.745159
2023-03-01T08:25:21.018Z,9.745531
2023-03-01T08:26:20.906Z,9.745420
2023-03-01T08:27:20.902Z,9.745416
2023-03-01T08:28:20.899Z,9.745384
2023-03-01T08:29:20.896Z,9.745473
2023-03-01T08:30:20.908Z,9.745608
2023-03-01T08:31:20.918Z,9.745488
2023-03-01T08:32:20.998Z,9.745527
2023-03-01T08:33:20.915Z,9.745486
2023-03-01T08:34:20.848Z,9.745551
2023-03-01T08:35:20.875Z,9.745668
2023-03-01T08:36:20.860Z,9.745584
2023-03-01T08:37:20.824Z,9.745457
2023-03-01T08:38:20.818Z,9.745554
2023-03-01T08:39:20.856Z,9.745236
2023-03-01T08:40:20.823Z,9.745411
2023-03-01T08:41:20.794Z,9.745571
2023-03-01T08:42:20.800Z,9.745482
2023-03-01T08:43:22.443Z,9.745572
2023-03-01T08:44:20.778Z,9.745608
2023-03-01T08:45:20.794Z,9.745456
2023-03-01T08:46:20.754Z,9.745455
2023-03-01T08:47:20.747Z,9.745457
2023-03-01T08:48:20.750Z,9.745538
2023-03-01T08:49:20.753Z,9.745495
2023-03-01T08:50:20.760Z,9.745461
2023-03-01T08:51:20.723Z,9.745544
2023-03-01T08:52:20.708Z,9.745489
2023-03-01T08:53:20.705Z,9.745438
2023-03-01T08:54:20.690Z,9.745436
2023-03-01T08:55:20.712Z,9.745408
2023-03-01T08:56:20.707Z,9.745464
2023-03-01T08:57:20.674Z,9.745505
2023-03-01T08:58:20.669Z,9.745525
2023-03-01T08:59:20.661Z,9.745539
2023-03-01T09:00:20.681Z,9.745495
2023-03-01T09:01:20.642Z,9.745556
2023-03-01T09:02:20.674Z,9.745547
2023-03-01T09:03:20.651Z,9.745601
2023-03-01T09:04:20.619Z,9.745598
2023-03-01T09:05:20.642Z,9.745674
2023-03-01T09:06:20.624Z,9.745738
2023-03-01T09:07:20.604Z,9.745794
2023-03-01T09:08:20.603Z,9.745663
2023-03-01T09:09:20.619Z,9.745653
2023-03-01T09:10:20.611Z,9.745552
2023-03-01T09:11:20.577Z,9.745297
2023-03-01T09:12:20.561Z,9.745819
2023-03-01T09:13:20.551Z,9.745757
2023-03-01T09:14:20.543Z,9.745708
2023-03-01T09:15:21.562Z,9.745763
2023-03-01T09:16:20.584Z,9.745868
2023-03-01T09:17:20.529Z,9.745979
2023-03-01T09:18:20.521Z,9.746025
2023-03-01T09:19:20.516Z,9.745717
2023-03-01T09:20:20.557Z,9.745450
2023-03-01T09:21:27.504Z,9.745423
2023-03-01T09:22:22.496Z,9.745414
2023-03-01T09:23:20.482Z,9.745400
2023-03-01T09:24:20.468Z,9.744984
2023-03-01T09:25:20.495Z,9.745358
2023-03-01T09:26:20.456Z,9.745481
2023-03-01T09:27:20.449Z,9.745525
2023-03-01T09:28:29.474Z,9.745420
2023-03-01T09:29:22.430Z,9.744399
2023-03-01T09:30:20.444Z,9.745232
2023-03-01T09:31:20.489Z,9.745515
2023-03-01T09:32:20.430Z,9.746059
2023-03-01T09:33:20.577Z,9.745557
2023-03-01T09:34:20.401Z,9.745690
2023-03-01T09:35:20.404Z,9.745714
2023-03-01T09:36:20.374Z,9.745835
2023-03-01T09:37:20.370Z,9.745533
2023-03-01T09:38:20.373Z,9.745617
2023-03-01T09:39:20.352Z,9.745854
2023-03-01T09:40:20.352Z,9.745584
2023-03-01T09:41:20.353Z,9.745668
2023-03-01T09:42:20.327Z,9.745629
2023-03-01T09:43:20.319Z,9.745422
2023-03-01T09:44:20.306Z,9.745435
2023-03-01T09:45:20.323Z,9.745597
2023-03-01T09:46:20.309Z,9.745379
2023-03-01T09:47:20.287Z,9.745339
2023-03-01T09:48:20.299Z,9.745558
2023-03-01T09:49:20.607Z,9.745522
2023-03-01T09:50:21.296Z,9.745524
2023-03-01T09:51:20.255Z,9.745864
2023-03-01T09:52:20.289Z,9.745708
2023-03-01T09:53:20.247Z,9.745886
2023-03-01T09:54:20.251Z,9.745522
2023-03-01T09:55:20.227Z,9.745784
2023-03-01T09:56:20.270Z,9.745556
2023-03-01T09:57:20.212Z,9.745731
2023-03-01T09:58:20.204Z,9.745656
2023-03-01T09:59:22.242Z,9.745439
2023-03-01T10:00:20.213Z,9.745430
2023-03-01T10:01:20.205Z,9.745332
2023-03-01T10:02:20.175Z,9.745451
2023-03-01T10:03:20.202Z,9.745373
2023-03-01T10:04:20.279Z,9.745306
2023-03-01T10:05:20.169Z,9.745432
2023-03-01T10:06:33.969Z,9.745313
2023-03-01T10:07:22.144Z,9.745511
2023-03-01T10:08:20.134Z,9.745310
2023-03-01T10:09:20.119Z,9.745063
2023-03-01T10:10:20.114Z,9.745242
2023-03-01T10:11:21.336Z,9.745331
2023-03-01T10:12:21.100Z,9.744948
2023-03-01T10:13:20.095Z,9.745280
2023-03-01T10:14:20.088Z,9.745460
2023-03-01T10:15:20.075Z,9.745582
2023-03-01T10:16:20.099Z,9.745625
2023-03-01T10:17:20.438Z,9.745376
2023-03-01T10:18:21.048Z,9.745406
2023-03-01T10:19:20.045Z,9.745571
2023-03-01T10:20:20.037Z,9.745335
2023-03-01T10:21:20.055Z,9.745328
2023-03-01T10:22:20.017Z,9.745385
2023-03-01T10:23:20.011Z,9.745272
2023-03-01T10:24:20.017Z,9.745603
2023-03-01T10:25:20.002Z,9.745457
2023-03-01T10:26:20.016Z,9.745525
2023-03-01T10:27:19.990Z,9.745452
2023-03-01T10:28:20.074Z,9.745438
2023-03-01T10:29:19.973Z,9.745554
2023-03-01T10:30:19.952Z,9.745522
2023-03-01T10:31:20.032Z,9.745511
2023-03-01T10:32:20.005Z,9.745474
2023-03-01T10:33:19.937Z,9.745499
2023-03-01T10:34:19.928Z,9.745655
2023-03-01T10:35:19.933Z,9.745565
2023-03-01T10:36:19.955Z,9.745425
2023-03-01T10:37:19.907Z,9.745532
2023-03-01T10:38:19.903Z,9.745501
2023-03-01T10:39:19.890Z,9.745442
2023-03-01T10:40:19.892Z,9.745400
2023-03-01T10:41:19.912Z,9.745440
2023-03-01T10:42:19.889Z,9.745493
2023-03-01T10:43:19.855Z,9.745466
2023-03-01T10:44:19.869Z,9.745495
2023-03-01T10:45:19.849Z,9.745462
2023-03-01T10:46:20.006Z,9.745683
2023-03-01T10:47:19.833Z,9.745659
2023-03-01T10:48:19.826Z,9.745597
2023-03-01T10:49:19.822Z,9.745569
2023-03-01T10:50:19.817Z,9.745555
2023-03-01T10:51:19.832Z,9.745526
2023-03-01T10:52:19.801Z,9.745706
2023-03-01T10:53:19.791Z,9.745412
2023-03-01T10:54:19.780Z,9.745318
2023-03-01T10:55:19.781Z,9.745317
2023-03-01T10:56:19.802Z,9.745299
2023-03-01T10:57:19.789Z,9.745336
2023-03-01T10:58:19.749Z,9.745511
2023-03-01T10:59:19.755Z,9.745567
2023-03-01T11:00:19.756Z,9.745509
2023-03-01T11:01:19.795Z,9.745410
2023-03-01T11:02:25.474Z,9.745637
2023-03-01T11:03:22.720Z,9.745365
2023-03-01T11:04:20.714Z,9.745381
2023-03-01T11:05:19.693Z,9.745389
2023-03-01T11:06:19.700Z,9.745313
2023-03-01T11:07:19.711Z,9.745201
2023-03-01T11:08:19.675Z,9.745220
2023-03-01T11:09:19.677Z,9.745549
2023-03-01T11:10:19.660Z,9.745584
2023-03-01T11:11:19.656Z,9.745420
2023-03-01T11:12:19.734Z,9.745434
2023-03-01T11:13:19.675Z,9.745585
2023-03-01T11:14:26.955Z,9.745300
2023-03-01T11:15:21.614Z,9.745707
2023-03-01T11:16:19.652Z,9.745486
2023-03-01T11:17:19.635Z,9.745728
2023-03-01T11:18:19.603Z,9.745349
2023-03-01T11:19:19.593Z,9.745289
2023-03-01T11:20:19.594Z,9.745446
2023-03-01T11:21:19.575Z,9.745371
2023-03-01T11:22:19.679Z,9.745454
2023-03-01T11:23:19.555Z,9.745493
2023-03-01T11:24:19.550Z,9.745603
2023-03-01T11:25:19.537Z,9.745380
2023-03-01T11:26:19.532Z,9.745553
2023-03-01T11:27:19.564Z,9.745494
2023-03-01T11:28:19.519Z,9.745399
2023-03-01T11:29:19.512Z,9.745444
2023-03-01T11:30:19.498Z,9.745438
2023-03-01T11:31:19.551Z,9.745369
2023-03-01T11:32:19.632Z,9.745531
2023-03-01T11:33:19.478Z,9.745525
2023-03-01T11:34:19.471Z,9.745725
2023-03-01T11:35:19.462Z,9.745768
2023-03-01T11:36:19.464Z,9.745750
2023-03-01T11:37:20.482Z,9.745686
2023-03-01T11:38:19.438Z,9.745776
2023-03-01T11:39:19.432Z,9.745643
2023-03-01T11:40:19.428Z,9.745718
2023-03-01T11:41:19.446Z,9.745591
2023-03-01T11:42:19.750Z,9.745677
2023-03-01T11:43:19.420Z,9.745572
2023-03-01T11:44:19.398Z,9.745336